sensor_id;sensor_type;location;lat;lon;timestamp;pressure;altitude;pressure_sealevel;temperature;humidity
48644;BME280;34928;37.302;-121.984;2023-07-31T00:03:42;100798.0;;;31.17;21.66
48644;BME280;34928;37.302;-121.984;2023-07-31T00:13:48;100788.0;;;31.36;21.61
48644;BME280;34928;37.302;-121.984;2023-07-31T00:23:53;100786.0;;;31.24;21.53
48644;BME280;34928;37.302;-121.984;2023-07-31T00:33:59;100786.0;;;31.00;21.86
48644;BME280;34928;37.302;-121.984;2023-07-31T00:44:03;100791.0;;;31.44;22.46
48644;BME280;34928;37.302;-121.984;2023-07-31T00:54:08;100792.0;;;32.04;22.43
48644;BME280;34928;37.302;-121.984;2023-07-31T01:04:13;100799.0;;;31.97;22.92
48644;BME280;34928;37.302;-121.984;2023-07-31T01:14:18;100799.0;;;31.75;22.91
48644;BME280;34928;37.302;-121.984;2023-07-31T01:24:29;100809.0;;;31.62;23.19
48644;BME280;34928;37.302;-121.984;2023-07-31T01:34:34;100814.0;;;32.21;22.60
48644;BME280;34928;37.302;-121.984;2023-07-31T01:44:43;100813.0;;;32.42;22.68
48644;BME280;34928;37.302;-121.984;2023-07-31T01:54:49;100814.0;;;32.89;22.83
48644;BME280;34928;37.302;-121.984;2023-07-31T02:04:54;100816.0;;;33.02;22.96
48644;BME280;34928;37.302;-121.984;2023-07-31T02:14:59;100819.0;;;33.18;23.07
48644;BME280;34928;37.302;-121.984;2023-07-31T02:25:04;100829.0;;;33.34;23.08
48644;BME280;34928;37.302;-121.984;2023-07-31T02:35:08;100839.0;;;33.25;23.11
48644;BME280;34928;37.302;-121.984;2023-07-31T02:45:13;100854.0;;;33.32;23.20
48644;BME280;34928;37.302;-121.984;2023-07-31T02:55:19;100853.0;;;33.87;23.27
48644;BME280;34928;37.302;-121.984;2023-07-31T03:05:27;100870.0;;;33.47;23.35
48644;BME280;34928;37.302;-121.984;2023-07-31T03:15:33;100875.0;;;33.54;23.40
48644;BME280;34928;37.302;-121.984;2023-07-31T03:25:38;100880.0;;;33.54;23.53
48644;BME280;34928;37.302;-121.984;2023-07-31T03:35:42;100891.0;;;33.52;23.66
48644;BME280;34928;37.302;-121.984;2023-07-31T03:45:48;100894.0;;;33.42;24.01
48644;BME280;34928;37.302;-121.984;2023-07-31T03:55:52;100901.0;;;32.96;24.16
48644;BME280;34928;37.302;-121.984;2023-07-31T04:05:58;100901.0;;;33.16;24.23
48644;BME280;34928;37.302;-121.984;2023-07-31T04:16:03;100915.0;;;33.04;24.26
48644;BME280;34928;37.302;-121.984;2023-07-31T04:26:08;100931.0;;;33.45;24.48
48644;BME280;34928;37.302;-121.984;2023-07-31T04:36:13;100931.0;;;32.96;24.62
48644;BME280;34928;37.302;-121.984;2023-07-31T04:46:19;100942.0;;;32.79;24.75
48644;BME280;34928;37.302;-121.984;2023-07-31T04:56:23;100952.0;;;32.55;25.02
48644;BME280;34928;37.302;-121.984;2023-07-31T05:06:28;100961.0;;;32.39;25.21
48644;BME280;34928;37.302;-121.984;2023-07-31T05:16:33;100962.0;;;32.52;25.24
48644;BME280;34928;37.302;-121.984;2023-07-31T05:26:38;100964.0;;;32.48;24.94
48644;BME280;34928;37.302;-121.984;2023-07-31T05:36:43;100953.0;;;32.01;25.15
48644;BME280;34928;37.302;-121.984;2023-07-31T05:46:47;100949.0;;;31.44;25.65
48644;BME280;34928;37.302;-121.984;2023-07-31T05:56:53;100939.0;;;31.39;25.57
48644;BME280;34928;37.302;-121.984;2023-07-31T06:06:58;100947.0;;;28.72;28.93
48644;BME280;34928;37.302;-121.984;2023-07-31T06:17:02;100943.0;;;25.65;33.87
48644;BME280;34928;37.302;-121.984;2023-07-31T06:27:09;100936.0;;;26.53;32.10
48644;BME280;34928;37.302;-121.984;2023-07-31T06:37:13;100932.0;;;26.91;32.49
48644;BME280;34928;37.302;-121.984;2023-07-31T06:47:18;100926.0;;;25.25;34.75
48644;BME280;34928;37.302;-121.984;2023-07-31T06:57:23;100922.0;;;28.99;30.10
48644;BME280;34928;37.302;-121.984;2023-07-31T07:07:28;100925.0;;;30.55;27.61
48644;BME280;34928;37.302;-121.984;2023-07-31T07:17:32;100920.0;;;31.29;26.48
48644;BME280;34928;37.302;-121.984;2023-07-31T07:27:37;100914.0;;;31.55;25.97
48644;BME280;34928;37.302;-121.984;2023-07-31T07:37:43;100913.0;;;31.81;25.74
48644;BME280;34928;37.302;-121.984;2023-07-31T07:47:48;100903.0;;;31.67;25.68
48644;BME280;34928;37.302;-121.984;2023-07-31T07:57:52;100892.0;;;32.03;25.60
48644;BME280;34928;37.302;-121.984;2023-07-31T08:07:58;100892.0;;;31.80;25.60
48644;BME280;34928;37.302;-121.984;2023-07-31T08:18:03;100889.0;;;31.79;25.65
48644;BME280;34928;37.302;-121.984;2023-07-31T08:28:08;100884.0;;;31.67;25.83
48644;BME280;34928;37.302;-121.984;2023-07-31T08:38:13;100867.0;;;31.54;26.00
48644;BME280;34928;37.302;-121.984;2023-07-31T08:48:18;100858.0;;;31.57;26.21
48644;BME280;34928;37.302;-121.984;2023-07-31T08:58:24;100851.0;;;31.24;26.22
48644;BME280;34928;37.302;-121.984;2023-07-31T09:08:30;100851.0;;;31.04;26.37
48644;BME280;34928;37.302;-121.984;2023-07-31T09:18:54;100856.0;;;30.84;26.52
48644;BME280;34928;37.302;-121.984;2023-07-31T09:28:58;100856.0;;;30.79;26.44
48644;BME280;34928;37.302;-121.984;2023-07-31T09:39:04;100847.0;;;30.77;26.50
48644;BME280;34928;37.302;-121.984;2023-07-31T09:49:09;100842.0;;;31.30;26.40
48644;BME280;34928;37.302;-121.984;2023-07-31T09:59:14;100854.0;;;30.63;26.48
48644;BME280;34928;37.302;-121.984;2023-07-31T10:09:19;100854.0;;;30.61;26.44
48644;BME280;34928;37.302;-121.984;2023-07-31T10:19:28;100858.0;;;30.46;26.52
48644;BME280;34928;37.302;-121.984;2023-07-31T10:29:34;100856.0;;;30.53;26.66
48644;BME280;34928;37.302;-121.984;2023-07-31T10:39:38;100853.0;;;30.73;26.59
48644;BME280;34928;37.302;-121.984;2023-07-31T10:49:46;100847.0;;;30.53;26.73
48644;BME280;34928;37.302;-121.984;2023-07-31T11:10:15;100831.0;;;30.25;26.94
48644;BME280;34928;37.302;-121.984;2023-07-31T11:20:23;100838.0;;;30.10;27.05
48644;BME280;34928;37.302;-121.984;2023-07-31T11:30:28;100830.0;;;30.01;27.11
48644;BME280;34928;37.302;-121.984;2023-07-31T11:40:41;100836.0;;;30.14;27.01
48644;BME280;34928;37.302;-121.984;2023-07-31T11:50:49;100843.0;;;29.92;26.95
48644;BME280;34928;37.302;-121.984;2023-07-31T12:00:53;100851.0;;;29.83;26.95
48644;BME280;34928;37.302;-121.984;2023-07-31T12:11:06;100849.0;;;29.71;27.02
48644;BME280;34928;37.302;-121.984;2023-07-31T12:21:14;100839.0;;;29.78;27.05
48644;BME280;34928;37.302;-121.984;2023-07-31T12:31:20;100847.0;;;29.79;26.99
48644;BME280;34928;37.302;-121.984;2023-07-31T12:41:27;100843.0;;;29.61;27.06
48644;BME280;34928;37.302;-121.984;2023-07-31T12:51:33;100840.0;;;29.23;27.14
48644;BME280;34928;37.302;-121.984;2023-07-31T13:01:38;100846.0;;;29.23;27.05
48644;BME280;34928;37.302;-121.984;2023-07-31T13:11:43;100849.0;;;29.21;27.23
48644;BME280;34928;37.302;-121.984;2023-07-31T13:21:48;100858.0;;;28.94;27.13
48644;BME280;34928;37.302;-121.984;2023-07-31T13:31:53;100863.0;;;29.04;27.16
48644;BME280;34928;37.302;-121.984;2023-07-31T13:41:57;100865.0;;;29.43;26.94
48644;BME280;34928;37.302;-121.984;2023-07-31T13:52:03;100858.0;;;29.36;26.94
48644;BME280;34928;37.302;-121.984;2023-07-31T14:02:08;100866.0;;;29.33;26.54
48644;BME280;34928;37.302;-121.984;2023-07-31T14:12:14;100868.0;;;29.10;26.70
48644;BME280;34928;37.302;-121.984;2023-07-31T14:22:28;100868.0;;;29.24;26.90
48644;BME280;34928;37.302;-121.984;2023-07-31T14:32:32;100882.0;;;29.09;27.04
48644;BME280;34928;37.302;-121.984;2023-07-31T14:42:39;100889.0;;;29.35;26.81
48644;BME280;34928;37.302;-121.984;2023-07-31T14:52:43;100896.0;;;24.43;35.43
48644;BME280;34928;37.302;-121.984;2023-07-31T15:02:47;100907.0;;;23.57;37.95
48644;BME280;34928;37.302;-121.984;2023-07-31T15:12:56;100909.0;;;23.24;39.18
48644;BME280;34928;37.302;-121.984;2023-07-31T15:23:04;100913.0;;;23.55;39.23
48644;BME280;34928;37.302;-121.984;2023-07-31T15:33:09;100918.0;;;23.07;39.79
48644;BME280;34928;37.302;-121.984;2023-07-31T15:43:13;100913.0;;;27.22;33.23
48644;BME280;34928;37.302;-121.984;2023-07-31T15:53:17;100902.0;;;28.51;30.45
48644;BME280;34928;37.302;-121.984;2023-07-31T16:03:22;100901.0;;;28.86;30.09
48644;BME280;34928;37.302;-121.984;2023-07-31T16:13:28;100911.0;;;29.11;29.63
48644;BME280;34928;37.302;-121.984;2023-07-31T16:23:33;100911.0;;;29.77;28.84
48644;BME280;34928;37.302;-121.984;2023-07-31T16:33:38;100918.0;;;29.91;28.67
48644;BME280;34928;37.302;-121.984;2023-07-31T16:43:42;100902.0;;;28.99;29.64
48644;BME280;34928;37.302;-121.984;2023-07-31T16:53:48;100897.0;;;29.40;29.21
48644;BME280;34928;37.302;-121.984;2023-07-31T17:03:52;100892.0;;;29.86;28.44
48644;BME280;34928;37.302;-121.984;2023-07-31T17:13:57;100888.0;;;30.22;27.94
48644;BME280;34928;37.302;-121.984;2023-07-31T17:24:03;100882.0;;;30.52;27.70
48644;BME280;34928;37.302;-121.984;2023-07-31T17:34:08;100886.0;;;30.62;27.32
48644;BME280;34928;37.302;-121.984;2023-07-31T17:44:12;100881.0;;;30.95;27.10
48644;BME280;34928;37.302;-121.984;2023-07-31T17:54:18;100871.0;;;31.27;26.87
48644;BME280;34928;37.302;-121.984;2023-07-31T18:04:23;100868.0;;;31.55;26.59
48644;BME280;34928;37.302;-121.984;2023-07-31T18:14:27;100861.0;;;31.58;26.31
48644;BME280;34928;37.302;-121.984;2023-07-31T18:24:33;100866.0;;;31.53;26.46
48644;BME280;34928;37.302;-121.984;2023-07-31T18:34:37;100863.0;;;31.48;26.33
48644;BME280;34928;37.302;-121.984;2023-07-31T18:44:42;100862.0;;;31.58;26.27
48644;BME280;34928;37.302;-121.984;2023-07-31T18:54:47;100854.0;;;31.72;26.24
48644;BME280;34928;37.302;-121.984;2023-07-31T19:04:53;100833.0;;;31.99;25.98
48644;BME280;34928;37.302;-121.984;2023-07-31T19:14:58;100826.0;;;32.11;25.84
48644;BME280;34928;37.302;-121.984;2023-07-31T19:25:04;100830.0;;;32.60;25.61
48644;BME280;34928;37.302;-121.984;2023-07-31T19:35:08;100827.0;;;32.58;25.70
48644;BME280;34928;37.302;-121.984;2023-07-31T19:45:13;100822.0;;;32.90;25.67
48644;BME280;34928;37.302;-121.984;2023-07-31T19:55:18;100825.0;;;32.44;25.97
48644;BME280;34928;37.302;-121.984;2023-07-31T20:05:24;100817.0;;;33.10;25.93
48644;BME280;34928;37.302;-121.984;2023-07-31T20:15:28;100806.0;;;32.89;25.72
48644;BME280;34928;37.302;-121.984;2023-07-31T20:25:32;100797.0;;;33.18;25.42
48644;BME280;34928;37.302;-121.984;2023-07-31T20:35:38;100799.0;;;33.12;25.40
48644;BME280;34928;37.302;-121.984;2023-07-31T20:45:42;100794.0;;;33.21;25.39
48644;BME280;34928;37.302;-121.984;2023-07-31T20:55:48;100794.0;;;33.23;25.50
48644;BME280;34928;37.302;-121.984;2023-07-31T21:05:53;100777.0;;;33.36;25.34
48644;BME280;34928;37.302;-121.984;2023-07-31T21:15:59;100778.0;;;33.82;25.16
48644;BME280;34928;37.302;-121.984;2023-07-31T21:26:03;100775.0;;;33.71;25.16
48644;BME280;34928;37.302;-121.984;2023-07-31T21:36:08;100771.0;;;33.90;25.11
48644;BME280;34928;37.302;-121.984;2023-07-31T21:46:13;100768.0;;;34.10;25.06
48644;BME280;34928;37.302;-121.984;2023-07-31T21:56:18;100763.0;;;34.16;25.06
48644;BME280;34928;37.302;-121.984;2023-07-31T22:06:23;100755.0;;;34.31;24.91
48644;BME280;34928;37.302;-121.984;2023-07-31T22:16:28;100757.0;;;34.34;24.95
48644;BME280;34928;37.302;-121.984;2023-07-31T22:26:32;100762.0;;;34.19;24.94
48644;BME280;34928;37.302;-121.984;2023-07-31T22:36:37;100756.0;;;32.50;25.69
48644;BME280;34928;37.302;-121.984;2023-07-31T22:46:43;100758.0;;;32.87;25.57
48644;BME280;34928;37.302;-121.984;2023-07-31T22:56:47;100745.0;;;32.97;25.20
48644;BME280;34928;37.302;-121.984;2023-07-31T23:06:53;100751.0;;;32.97;24.96
48644;BME280;34928;37.302;-121.984;2023-07-31T23:16:57;100744.0;;;32.39;25.56
48644;BME280;34928;37.302;-121.984;2023-07-31T23:27:02;100746.0;;;32.21;25.34
48644;BME280;34928;37.302;-121.984;2023-07-31T23:37:07;100750.0;;;32.95;24.39
48644;BME280;34928;37.302;-121.984;2023-07-31T23:47:13;100750.0;;;32.92;24.72
48644;BME280;34928;37.302;-121.984;2023-07-31T23:57:18;100763.0;;;33.42;24.00
